Terminal Aerodrome Forecast
Issued by NWS Sterling, VA

Home | Current Version | Previous Version | Text Only | Print | Product List | Glossary On
Versions: 1 2 3 4 5 6 7 8 9 10 11 12 13 14 15 16 17 18 19 20
000
FTUS41 KLWX 191737
TAFCHO
TAF
KCHO 191737Z 1918/2018 07012KT P6SM -RA OVC060
     FM192000 06012KT P6SM RA OVC020
     FM192100 06012KT 2SM +RA OVC010
     FM200000 06012KT 3SM +RA OVC010
     FM200100 05013G23KT 2SM +RA OVC008
     FM200400 06015G24KT 2SM RA OVC008 WS020/13035KT
     FM200800 19007KT 3SM -RA OVC008
     FM201000 19006KT P6SM OVC008
     FM201500 20009KT P6SM BKN090=

USA.gov is the U.S. government's official web portal to all federal, state and local government web resources and services.